Time;durP1;ratioP1;P1;durP2;ratioP2;P2;SDS_P1;SDS_P2;PMS_P1;PMS_P2;Temp;Humidity;BMP_temperature;BMP_pressure;BME280_temperature;BME280_humidity;BME280_pressure;Samples;Min_cycle;Max_cycle;Signal;HPM_P1;HPM_P2
2021/09/25 00:02:46;;;;;;;20.48;11.05;;;;;;;14.47;79.17;100391.50;8661221;33;20191;-74
2021/09/25 00:07:51;;;;;;;25.75;12.10;;;;;;;14.49;78.91;100394.91;8661414;33;20199;-74
2021/09/25 00:12:55;;;;;;;20.60;10.85;;;;;;;14.39;79.49;100383.28;8659804;33;20185;-73
2021/09/25 00:17:58;;;;;;;18.15;11.20;;;;;;;14.20;80.50;100384.19;8661541;33;20365;-74
2021/09/25 00:23:03;;;;;;;18.55;12.15;;;;;;;14.12;80.41;100378.66;8660376;33;20192;-74
2021/09/25 00:28:06;;;;;;;17.30;11.05;;;;;;;14.19;80.32;100382.50;8660854;33;20197;-73
2021/09/25 00:33:09;;;;;;;17.45;11.38;;;;;;;14.07;80.78;100392.63;8660198;33;20597;-73
2021/09/25 00:38:13;;;;;;;20.27;10.80;;;;;;;14.02;80.80;100392.22;8659217;33;20553;-73
2021/09/25 00:43:16;;;;;;;17.38;8.90;;;;;;;14.04;80.25;100392.06;8660161;33;20565;-73
2021/09/25 00:48:19;;;;;;;17.52;10.38;;;;;;;14.06;80.44;100388.22;8660573;33;20497;-74
2021/09/25 00:53:23;;;;;;;17.00;10.35;;;;;;;13.90;81.02;100399.66;8659991;33;20530;-74
2021/09/25 00:58:27;;;;;;;17.65;10.45;;;;;;;13.89;81.24;100395.22;8660164;33;20145;-73
2021/09/25 01:03:30;;;;;;;17.17;10.30;;;;;;;13.97;81.01;100404.47;8659882;33;20192;-74
2021/09/25 01:08:35;;;;;;;18.67;10.32;;;;;;;14.14;80.40;100401.84;8659497;33;20192;-73
2021/09/25 01:13:38;;;;;;;18.92;11.52;;;;;;;13.97;80.97;100393.66;8659664;33;20439;-73
2021/09/25 01:18:41;;;;;;;19.23;10.25;;;;;;;14.02;80.55;100402.19;8659602;33;20497;-73
2021/09/25 01:23:46;;;;;;;16.85;9.38;;;;;;;13.92;80.90;100400.34;8659197;33;20464;-73
2021/09/25 01:28:49;;;;;;;17.60;9.95;;;;;;;13.87;81.45;100409.88;8659732;33;20275;-74
2021/09/25 01:33:53;;;;;;;21.00;11.35;;;;;;;13.91;81.09;100400.50;8659224;33;20446;-74
2021/09/25 01:38:57;;;;;;;16.80;11.15;;;;;;;13.89;81.43;100402.47;8659500;33;20188;-74
2021/09/25 01:44:00;;;;;;;16.20;9.90;;;;;;;13.87;81.41;100401.75;8658859;33;20276;-74
2021/09/25 01:49:04;;;;;;;15.70;10.35;;;;;;;13.89;81.07;100397.09;8658501;33;20125;-74
2021/09/25 01:54:09;;;;;;;17.92;10.63;;;;;;;14.06;80.97;100406.28;8658397;33;20144;-74
2021/09/25 01:59:12;;;;;;;15.90;10.90;;;;;;;14.10;80.48;100403.13;8658759;33;20196;-74
2021/09/25 02:04:15;;;;;;;18.45;10.27;;;;;;;13.89;81.49;100405.19;8658090;33;20257;-74
2021/09/25 02:09:19;;;;;;;18.42;10.25;;;;;;;13.94;81.34;100401.03;8659044;33;20243;-74
2021/09/25 02:14:22;;;;;;;19.02;10.75;;;;;;;13.87;81.42;100407.16;8658096;33;20168;-73
2021/09/25 02:19:25;;;;;;;18.85;11.55;;;;;;;13.99;80.78;100400.63;8658959;33;21625;-73
2021/09/25 02:24:29;;;;;;;20.92;11.40;;;;;;;13.98;80.61;100395.34;8657756;33;20145;-74
2021/09/25 02:29:33;;;;;;;16.50;10.57;;;;;;;14.12;80.12;100408.38;8658056;33;20184;-73
2021/09/25 02:34:37;;;;;;;20.95;11.18;;;;;;;13.98;80.56;100398.06;8657704;33;20235;-73
2021/09/25 02:39:41;;;;;;;18.35;12.07;;;;;;;14.01;80.02;100393.19;8657862;33;20253;-73
2021/09/25 02:44:44;;;;;;;20.20;12.43;;;;;;;13.84;81.41;100384.00;8657191;33;20153;-73
2021/09/25 02:49:47;;;;;;;18.75;11.88;;;;;;;13.79;81.17;100396.25;8657979;33;21005;-74
2021/09/25 02:54:51;;;;;;;19.90;12.93;;;;;;;13.91;81.09;100382.44;8662804;33;20545;-73
2021/09/25 02:59:54;;;;;;;19.08;11.23;;;;;;;13.91;80.75;100385.13;8661490;33;20133;-74
2021/09/25 03:04:57;;;;;;;19.65;11.60;;;;;;;13.99;80.29;100392.53;8662665;33;20180;-73
2021/09/25 03:10:01;;;;;;;20.85;10.48;;;;;;;14.10;79.66;100389.63;8663107;33;20966;-74
2021/09/25 03:15:09;;;;;;;18.83;11.07;;;;;;;14.02;80.07;100391.38;8662043;33;20141;-74
2021/09/25 03:20:13;;;;;;;17.55;10.80;;;;;;;14.10;79.53;100392.34;8662949;33;20247;-74
2021/09/25 03:25:18;;;;;;;17.73;11.13;;;;;;;14.07;79.98;100397.16;8661668;33;20156;-73
2021/09/25 03:30:22;;;;;;;18.48;11.23;;;;;;;14.04;79.66;100395.63;8662370;33;20184;-73
2021/09/25 03:35:26;;;;;;;20.70;11.20;;;;;;;13.86;80.60;100400.06;8661868;33;20634;-74
2021/09/25 03:40:30;;;;;;;19.90;11.05;;;;;;;13.89;80.51;100406.03;8661395;33;20240;-74
2021/09/25 03:45:34;;;;;;;20.95;10.73;;;;;;;13.92;80.13;100405.72;8661520;33;20276;-74
2021/09/25 03:50:37;;;;;;;17.67;10.85;;;;;;;13.74;80.89;100403.91;8661586;33;20206;-74
2021/09/25 03:55:41;;;;;;;17.75;11.25;;;;;;;13.79;80.34;100398.94;8661011;33;20572;-73
2021/09/25 04:00:44;;;;;;;17.90;10.75;;;;;;;14.01;79.85;100404.00;8660912;33;20179;-73
2021/09/25 04:05:47;;;;;;;15.48;9.10;;;;;;;13.81;80.03;100418.56;8660447;33;20187;-73
2021/09/25 04:10:52;;;;;;;21.63;11.60;;;;;;;13.96;79.95;100410.84;8660951;33;20188;-73
2021/09/25 04:15:55;;;;;;;16.42;10.25;;;;;;;13.83;80.11;100409.31;8660673;33;20180;-73
2021/09/25 04:20:58;;;;;;;17.75;9.82;;;;;;;13.83;79.97;100419.28;8658752;33;20185;-73
2021/09/25 04:26:04;;;;;;;17.20;10.15;;;;;;;13.78;80.31;100419.69;8660632;33;20180;-73
2021/09/25 04:31:07;;;;;;;16.23;9.57;;;;;;;13.60;81.25;100414.19;8660374;33;20212;-73
2021/09/25 04:36:10;;;;;;;15.63;9.23;;;;;;;13.60;81.63;100407.91;8659784;33;20837;-73
2021/09/25 04:41:15;;;;;;;15.00;9.13;;;;;;;13.62;81.78;100414.03;8658550;33;20686;-74
2021/09/25 04:46:18;;;;;;;16.35;9.90;;;;;;;13.51;81.85;100417.72;8659668;33;20538;-73
2021/09/25 04:51:21;;;;;;;14.85;9.40;;;;;;;13.58;81.66;100418.88;8660070;33;20431;-74
2021/09/25 04:56:26;;;;;;;15.52;9.60;;;;;;;13.71;80.84;100432.06;8659366;33;20432;-74
2021/09/25 05:01:31;;;;;;;14.30;9.23;;;;;;;13.73;80.75;100416.56;8659402;33;20183;-73
2021/09/25 05:06:34;;;;;;;15.50;10.07;;;;;;;13.67;80.79;100419.84;8659595;33;20213;-74
2021/09/25 05:11:39;;;;;;;14.80;8.90;;;;;;;13.65;80.44;100422.69;8659608;33;20334;-74
2021/09/25 05:16:42;;;;;;;17.00;9.32;;;;;;;13.57;80.43;100429.78;8657870;33;20204;-74
2021/09/25 05:21:45;;;;;;;14.82;9.20;;;;;;;13.78;79.58;100424.25;8658859;33;20219;-74
2021/09/25 05:26:50;;;;;;;14.63;8.93;;;;;;;13.83;79.13;100424.66;8658390;33;21471;-74
2021/09/25 05:31:53;;;;;;;14.57;9.18;;;;;;;13.90;78.13;100433.88;8658987;33;20640;-74
2021/09/25 05:36:57;;;;;;;14.55;8.43;;;;;;;13.87;78.22;100437.72;8657669;33;20515;-74
2021/09/25 05:42:01;;;;;;;17.30;9.20;;;;;;;13.90;77.67;100434.75;8659505;33;20195;-73
2021/09/25 05:47:04;;;;;;;14.70;8.77;;;;;;;13.88;77.83;100441.28;8659208;33;20279;-73
2021/09/25 05:52:09;;;;;;;13.55;8.43;;;;;;;13.91;77.95;100452.66;8657643;33;20247;-74
2021/09/25 05:57:13;;;;;;;10.88;7.15;;;;;;;13.86;78.18;100437.88;8658192;33;20272;-74
2021/09/25 06:02:16;;;;;;;14.55;10.05;;;;;;;13.90;78.09;100447.38;8659180;33;20964;-74
2021/09/25 06:07:20;;;;;;;21.33;14.25;;;;;;;13.98;78.10;100457.47;8658428;33;20246;-74
2021/09/25 06:12:24;;;;;;;16.33;9.38;;;;;;;14.03;77.60;100457.88;8658681;33;20236;-74
2021/09/25 06:17:27;;;;;;;14.63;8.65;;;;;;;14.00;77.19;100463.59;8658460;33;20466;-74
2021/09/25 06:22:30;;;;;;;18.38;10.73;;;;;;;13.96;77.14;100463.03;8657521;33;22139;-74
2021/09/25 06:27:37;;;;;;;13.75;7.95;;;;;;;14.10;76.99;100467.13;8658254;33;20164;-73
2021/09/25 06:32:40;;;;;;;22.50;11.02;;;;;;;14.13;77.08;100474.94;8692806;33;20640;-72
2021/09/25 06:37:44;;;;;;;11.70;7.45;;;;;;;13.85;77.41;100479.34;8669577;33;20200;-72
2021/09/25 06:42:48;;;;;;;15.05;8.30;;;;;;;13.90;77.19;100474.38;8663263;33;20180;-72
2021/09/25 06:47:51;;;;;;;12.23;6.68;;;;;;;14.15;76.75;100490.00;8656537;33;20188;-72
2021/09/25 06:52:54;;;;;;;17.05;9.77;;;;;;;14.26;76.29;100486.28;8652630;33;20227;-72
2021/09/25 06:57:58;;;;;;;12.85;8.35;;;;;;;14.14;76.29;100493.69;8657750;33;20611;-72
2021/09/25 07:03:02;;;;;;;15.50;11.75;;;;;;;14.31;76.17;100496.63;8656578;33;20331;-72
2021/09/25 07:08:06;;;;;;;14.50;9.85;;;;;;;14.30;75.84;100494.94;8671057;33;20148;-72
2021/09/25 07:13:10;;;;;;;14.05;8.18;;;;;;;14.24;76.21;100492.81;8684772;33;20506;-72
2021/09/25 07:18:13;;;;;;;13.13;9.07;;;;;;;14.36;76.11;100488.94;8661541;33;20240;-72
2021/09/25 07:23:17;;;;;;;16.90;9.35;;;;;;;14.42;75.76;100496.50;8655860;33;20194;-73
2021/09/25 07:28:21;;;;;;;13.85;9.02;;;;;;;14.48;75.57;100497.75;8657106;33;20955;-72
2021/09/25 07:33:24;;;;;;;15.48;8.63;;;;;;;14.59;75.09;100505.72;8656358;33;20184;-73
2021/09/25 07:38:27;;;;;;;14.75;9.90;;;;;;;14.80;74.75;100509.00;8676022;33;20148;-72
2021/09/25 07:43:32;;;;;;;12.45;8.15;;;;;;;14.82;74.27;100512.44;8719388;33;20201;-72
2021/09/25 07:48:35;;;;;;;13.00;7.60;;;;;;;14.77;74.29;100522.00;8720635;33;20444;-72
2021/09/25 07:53:38;;;;;;;12.50;8.40;;;;;;;15.22;73.50;100518.47;8699442;33;20542;-73
2021/09/25 07:58:42;;;;;;;14.45;8.50;;;;;;;15.18;72.58;100531.47;8703201;33;20484;-73
2021/09/25 08:03:45;;;;;;;16.42;10.13;;;;;;;15.64;71.79;100523.38;8672850;33;20198;-73
2021/09/25 08:08:49;;;;;;;14.02;7.35;;;;;;;15.66;71.00;100527.66;8665884;33;20635;-73
2021/09/25 08:13:53;;;;;;;11.02;7.32;;;;;;;15.65;71.01;100525.94;8702231;33;20187;-73
2021/09/25 08:18:57;;;;;;;11.70;7.22;;;;;;;16.19;69.30;100519.63;8717135;33;20156;-73
2021/09/25 08:24:00;;;;;;;13.90;9.30;;;;;;;16.22;68.35;100524.75;8702775;33;20335;-73
2021/09/25 08:29:04;;;;;;;12.13;7.80;;;;;;;16.48;67.81;100532.91;8693336;33;20210;-73
2021/09/25 08:34:07;;;;;;;12.38;9.10;;;;;;;16.62;67.45;100534.19;8718589;33;20237;-73
2021/09/25 08:39:10;;;;;;;12.00;7.07;;;;;;;16.55;67.57;100542.13;8714440;33;20209;-73
2021/09/25 08:44:15;;;;;;;9.50;6.22;;;;;;;16.39;67.99;100542.84;8676052;33;20244;-73
2021/09/25 08:49:18;;;;;;;10.45;6.10;;;;;;;16.40;68.97;100555.41;8659290;33;20189;-73
2021/09/25 08:54:21;;;;;;;13.23;6.20;;;;;;;16.90;67.12;100552.00;8676552;33;20276;-73
2021/09/25 08:59:25;;;;;;;12.00;6.47;;;;;;;17.34;66.08;100557.31;8691448;33;20184;-73
2021/09/25 09:04:42;;;;;;;13.63;6.75;;;;;;;17.30;65.54;100564.06;8693212;33;20184;-73
2021/09/25 09:09:47;;;;;;;11.68;6.72;;;;;;;16.92;66.08;100568.97;8659600;33;20192;-73
2021/09/25 09:14:54;;;;;;;12.05;6.03;;;;;;;16.84;67.17;100568.03;8681066;33;20190;-73
2021/09/25 09:19:57;;;;;;;16.43;12.33;;;;;;;17.13;66.47;100562.25;8659464;33;20184;-73
2021/09/25 09:25:01;;;;;;;11.75;7.30;;;;;;;18.00;63.32;100568.34;8658956;33;20206;-73
2021/09/25 09:30:12;;;;;;;11.60;7.63;;;;;;;18.78;60.58;100568.63;8659389;33;21612;-73
2021/09/25 09:35:18;;;;;;;12.68;6.53;;;;;;;18.25;61.69;100569.19;8659028;33;20973;-73
2021/09/25 09:40:21;;;;;;;14.48;8.07;;;;;;;17.66;63.77;100574.69;8659181;33;20244;-73
2021/09/25 09:45:29;;;;;;;13.93;6.80;;;;;;;17.88;63.79;100565.03;8658668;33;20894;-73
2021/09/25 09:50:32;;;;;;;10.23;7.63;;;;;;;17.74;64.53;100572.00;8659023;33;20202;-73
2021/09/25 09:55:35;;;;;;;12.77;7.80;;;;;;;18.83;62.14;100561.84;8658911;33;21558;-74
2021/09/25 10:00:40;;;;;;;15.65;13.98;;;;;;;19.57;59.97;100555.09;8658194;33;20219;-73
2021/09/25 10:05:44;;;;;;;11.50;7.30;;;;;;;19.51;59.77;100560.38;8658994;33;20258;-73
2021/09/25 10:10:47;;;;;;;12.60;8.88;;;;;;;19.35;59.67;100564.03;8659542;33;20188;-73
2021/09/25 10:15:51;;;;;;;11.80;7.93;;;;;;;19.32;59.65;100561.66;8658261;33;20234;-74
2021/09/25 10:20:55;;;;;;;15.25;9.07;;;;;;;19.57;58.74;100571.44;8658526;33;21065;-73
2021/09/25 10:25:59;;;;;;;15.13;6.97;;;;;;;20.21;56.33;100554.78;8657947;33;20283;-73
2021/09/25 10:31:03;;;;;;;9.98;6.18;;;;;;;21.12;54.84;100561.09;8658320;33;20685;-73
2021/09/25 10:36:14;;;;;;;12.95;6.53;;;;;;;21.42;54.03;100567.38;8657905;33;20141;-73
2021/09/25 10:41:18;;;;;;;13.40;7.15;;;;;;;21.71;52.72;100567.50;8657556;33;21888;-73
2021/09/25 10:46:23;;;;;;;9.32;6.38;;;;;;;21.04;54.58;100571.28;8657125;33;20221;-73
2021/09/25 10:51:30;;;;;;;9.57;6.55;;;;;;;20.92;55.92;100573.56;8657706;33;20181;-73
2021/09/25 10:56:33;;;;;;;12.07;6.55;;;;;;;21.82;52.84;100565.13;8655783;33;20575;-73
2021/09/25 11:01:40;;;;;;;7.95;6.63;;;;;;;22.48;51.57;100573.13;8658023;33;20144;-73
2021/09/25 11:06:52;;;;;;;8.80;6.50;;;;;;;21.94;51.74;100570.06;8657813;33;20212;-73
2021/09/25 11:11:57;;;;;;;9.77;7.07;;;;;;;22.18;52.30;100561.47;8659758;33;20176;-73
2021/09/25 11:17:12;;;;;;;10.60;6.90;;;;;;;22.68;50.55;100558.75;8662110;33;20171;-73
2021/09/25 11:22:21;;;;;;;11.82;7.15;;;;;;;23.16;49.53;100565.19;8502245;33;20199;-73
2021/09/25 11:27:28;;;;;;;10.05;5.97;;;;;;;23.29;50.45;100552.63;8491671;33;20173;-73
2021/09/25 11:32:34;;;;;;;8.23;6.30;;;;;;;24.68;46.45;100547.38;8491740;33;20137;-73
2021/09/25 11:37:51;;;;;;;8.45;6.00;;;;;;;24.31;46.98;100540.63;8500100;33;20190;-73
2021/09/25 11:43:02;;;;;;;9.18;6.10;;;;;;;24.96;45.72;100538.88;8503177;33;20447;-73
2021/09/25 11:48:09;;;;;;;9.60;5.85;;;;;;;25.31;44.61;100538.53;8486847;33;20164;-74
2021/09/25 11:53:16;;;;;;;11.35;6.97;;;;;;;25.62;43.40;100543.28;8486686;33;20452;-74
2021/09/25 11:58:22;;;;;;;6.20;4.93;;;;;;;26.71;42.02;100543.09;8506048;33;20432;-74
2021/09/25 12:03:31;;;;;;;6.25;5.15;;;;;;;25.79;43.71;100538.13;8516846;33;20417;-74
2021/09/25 12:08:35;;;;;;;9.55;5.78;;;;;;;25.34;44.24;100532.63;8537834;33;20442;-73
2021/09/25 12:13:41;;;;;;;9.75;6.55;;;;;;;25.84;43.24;100529.22;8540086;33;20461;-73
2021/09/25 12:18:49;;;;;;;7.85;5.85;;;;;;;27.27;41.48;100514.50;8542684;33;20176;-73
2021/09/25 12:24:04;;;;;;;10.63;5.70;;;;;;;27.62;40.61;100511.09;8540292;33;20213;-73
2021/09/25 12:29:15;;;;;;;11.38;5.90;;;;;;;27.61;40.41;100510.25;8537721;33;21091;-73
2021/09/25 12:34:21;;;;;;;8.93;5.60;;;;;;;26.70;42.00;100505.63;8535795;33;20189;-73
2021/09/25 12:39:27;;;;;;;8.40;6.15;;;;;;;26.93;41.40;100504.94;8507700;33;20317;-73
2021/09/25 12:44:36;;;;;;;7.43;5.65;;;;;;;26.74;41.82;100504.94;8482802;33;20206;-73
2021/09/25 12:49:40;;;;;;;7.63;5.85;;;;;;;25.36;44.00;100500.25;8490748;33;20644;-73
2021/09/25 12:54:46;;;;;;;9.18;5.60;;;;;;;25.31;44.65;100511.03;8538481;33;20389;-73
2021/09/25 13:00:00;;;;;;;6.55;4.82;;;;;;;25.24;44.94;100515.75;8533240;33;20263;-73
2021/09/25 13:05:08;;;;;;;9.15;6.53;;;;;;;25.06;44.92;100505.44;8542605;33;20440;-73
2021/09/25 13:10:18;;;;;;;8.15;5.35;;;;;;;27.14;41.94;100510.00;8534841;33;20282;-75
2021/09/25 13:15:23;;;;;;;9.30;5.30;;;;;;;29.08;37.54;100494.78;8428544;33;20248;-73
2021/09/25 13:20:32;;;;;;;7.95;5.82;;;;;;;28.89;37.33;100496.00;8510518;33;21133;-74
2021/09/25 13:25:36;;;;;;;7.00;5.05;;;;;;;29.52;37.11;100495.09;8513529;33;20144;-73
2021/09/25 13:30:39;;;;;;;8.05;5.40;;;;;;;30.26;35.43;100485.94;8505922;33;21306;-74
2021/09/25 13:35:44;;;;;;;8.25;5.00;;;;;;;30.00;35.84;100476.31;8506907;33;21117;-74
2021/09/25 13:40:47;;;;;;;9.02;5.70;;;;;;;29.25;36.66;100474.66;8502109;33;20761;-74
2021/09/25 13:45:50;;;;;;;9.45;5.93;;;;;;;28.55;37.92;100481.16;8511588;33;20179;-73
2021/09/25 13:50:54;;;;;;;8.10;5.20;;;;;;;29.12;37.25;100478.53;8510878;33;20164;-74
2021/09/25 13:55:58;;;;;;;8.43;5.97;;;;;;;29.36;36.06;100473.78;8536990;33;21757;-74
2021/09/25 14:01:01;;;;;;;7.57;5.40;;;;;;;28.38;37.97;100470.78;8546605;33;20263;-74
2021/09/25 14:06:07;;;;;;;8.38;4.60;;;;;;;29.51;36.40;100462.13;8545966;33;20140;-75
2021/09/25 14:11:10;;;;;;;10.50;5.97;;;;;;;30.49;34.58;100459.94;8546636;33;20430;-75
2021/09/25 14:16:14;;;;;;;6.55;5.03;;;;;;;29.73;35.96;100468.69;8539878;33;20416;-76
2021/09/25 14:21:19;;;;;;;8.02;5.32;;;;;;;30.16;35.65;100445.03;8540070;33;20270;-75
2021/09/25 14:26:22;;;;;;;8.25;5.82;;;;;;;31.32;33.87;100460.78;8506504;33;20206;-75
2021/09/25 14:31:25;;;;;;;8.52;5.93;;;;;;;29.28;36.20;100455.63;8513525;33;20216;-76
2021/09/25 14:36:29;;;;;;;7.28;4.45;;;;;;;29.34;37.27;100453.81;8513660;33;20175;-75
2021/09/25 14:41:33;;;;;;;6.60;5.32;;;;;;;27.46;39.00;100459.34;8512917;33;21058;-75
2021/09/25 14:46:36;;;;;;;7.57;5.10;;;;;;;25.85;42.59;100459.34;8509046;33;20634;-76
2021/09/25 14:51:41;;;;;;;8.98;5.70;;;;;;;25.79;42.72;100463.84;8499605;33;21094;-75
2021/09/25 14:56:44;;;;;;;9.50;5.50;;;;;;;25.53;43.48;100464.81;8544242;33;20136;-75
2021/09/25 15:01:47;;;;;;;6.63;4.97;;;;;;;25.68;43.24;100458.22;8546048;33;20435;-75
2021/09/25 15:06:52;;;;;;;7.55;4.88;;;;;;;24.80;44.77;100447.84;8550205;33;20144;-75
2021/09/25 15:11:55;;;;;;;7.60;4.72;;;;;;;25.22;44.18;100446.41;8553315;33;20191;-75
2021/09/25 15:16:58;;;;;;;9.20;5.88;;;;;;;24.61;44.61;100449.59;8552909;33;20941;-75
2021/09/25 15:22:03;;;;;;;6.85;5.47;;;;;;;24.05;46.60;100440.78;8552930;33;20430;-75
2021/09/25 15:27:07;;;;;;;7.93;5.22;;;;;;;23.42;47.75;100448.47;8552034;33;20150;-75
2021/09/25 15:32:11;;;;;;;7.13;4.45;;;;;;;22.53;49.51;100447.47;8553356;33;20182;-75
2021/09/25 15:37:17;;;;;;;8.23;4.70;;;;;;;21.75;51.20;100448.53;8551387;33;20174;-75
2021/09/25 15:42:20;;;;;;;9.95;4.80;;;;;;;21.30;52.68;100454.16;8549044;33;20146;-75
2021/09/25 15:47:23;;;;;;;6.30;4.85;;;;;;;21.10;53.50;100456.66;8553262;33;20267;-75
2021/09/25 15:52:27;;;;;;;7.03;4.55;;;;;;;21.14;53.74;100457.09;8505559;33;20191;-75
2021/09/25 15:57:30;;;;;;;5.65;4.32;;;;;;;21.05;54.00;100447.34;8513058;33;20416;-75
2021/09/25 16:02:34;;;;;;;6.63;4.38;;;;;;;21.17;54.22;100459.44;8516723;33;20517;-75
2021/09/25 16:07:39;;;;;;;6.32;4.47;;;;;;;21.18;54.98;100458.44;8516109;33;20438;-75
2021/09/25 16:12:42;;;;;;;7.82;6.00;;;;;;;21.20;54.90;100459.94;8512110;33;20195;-75
2021/09/25 16:17:45;;;;;;;8.10;5.90;;;;;;;20.98;55.94;100450.81;8501524;33;20551;-75
2021/09/25 16:36:18;;;;;;;7.88;5.18;;;;;;;20.96;55.76;100450.16;8533353;33;21234;-75
2021/09/25 16:41:21;;;;;;;8.25;5.85;;;;;;;20.86;55.89;100435.94;8506575;33;20558;-75
2021/09/25 16:46:24;;;;;;;7.60;5.40;;;;;;;20.81;55.59;100435.66;8520580;33;21002;-75
2021/09/25 16:51:29;;;;;;;7.80;5.68;;;;;;;20.70;56.00;100441.63;8535126;33;20493;-75
2021/09/25 16:56:32;;;;;;;11.02;6.47;;;;;;;20.45;56.90;100443.78;8538218;33;20154;-75
2021/09/25 17:01:35;;;;;;;8.75;5.82;;;;;;;20.10;57.34;100429.78;8545868;33;20268;-74
2021/09/25 17:06:40;;;;;;;9.70;5.80;;;;;;;19.78;58.33;100442.72;8546380;33;20193;-75
2021/09/25 17:11:43;;;;;;;7.47;5.78;;;;;;;19.57;59.66;100446.09;8543908;33;21038;-75
2021/09/25 17:16:46;;;;;;;8.55;5.88;;;;;;;19.26;60.17;100448.00;8527051;33;20523;-75
2021/09/25 17:21:51;;;;;;;7.70;5.57;;;;;;;19.02;61.22;100447.09;8490202;33;21134;-75
2021/09/25 17:26:54;;;;;;;9.45;5.55;;;;;;;18.84;61.97;100454.69;8500242;33;20601;-74
2021/09/25 17:39:04;;;;;;;8.23;5.97;;;;;;;18.52;62.87;100461.91;8514400;33;20867;-74
2021/09/25 17:44:07;;;;;;;9.95;5.97;;;;;;;18.47;63.10;100462.44;8508684;33;20419;-73
2021/09/25 17:49:11;;;;;;;8.27;6.43;;;;;;;18.32;63.16;100467.75;8509814;33;20439;-73
2021/09/25 17:54:15;;;;;;;10.23;7.55;;;;;;;18.16;63.54;100466.94;8509473;33;20207;-74
2021/09/25 17:59:18;;;;;;;11.73;6.85;;;;;;;18.12;64.18;100463.69;8486942;33;20460;-74
2021/09/25 18:04:21;;;;;;;17.67;10.07;;;;;;;18.05;64.25;100465.41;8503303;33;20454;-74
2021/09/25 18:09:26;;;;;;;15.60;10.52;;;;;;;18.03;63.91;100473.72;8508897;33;21898;-74
2021/09/25 18:14:29;;;;;;;19.10;12.25;;;;;;;18.00;63.57;100470.50;8508773;33;20157;-74
2021/09/25 18:19:31;;;;;;;13.82;9.82;;;;;;;18.00;63.80;100467.78;8514519;33;20400;-74
2021/09/25 18:24:36;;;;;;;17.88;13.38;;;;;;;17.98;63.47;100473.38;8523438;33;20500;-74
2021/09/25 18:29:39;;;;;;;11.20;8.00;;;;;;;17.93;63.75;100484.72;8510248;33;20163;-74
2021/09/25 18:34:42;;;;;;;10.55;7.07;;;;;;;17.82;64.52;100476.06;8506088;33;20421;-74
2021/09/25 18:39:47;;;;;;;10.65;7.18;;;;;;;17.69;64.86;100471.16;8464375;33;20437;-74
2021/09/25 18:44:50;;;;;;;10.43;7.10;;;;;;;17.61;65.25;100476.59;8474591;33;20584;-74
2021/09/25 18:49:53;;;;;;;9.80;7.03;;;;;;;17.59;65.28;100476.72;8504978;33;20180;-74
2021/09/25 18:55:00;;;;;;;10.77;8.00;;;;;;;17.64;65.64;100484.38;8504902;33;21034;-74
2021/09/25 19:00:04;;;;;;;11.98;8.13;;;;;;;17.64;65.73;100487.94;8506473;33;21022;-74
2021/09/25 19:05:10;;;;;;;12.65;8.88;;;;;;;17.70;65.63;100483.72;8537251;33;20445;-74
2021/09/25 19:10:14;;;;;;;12.88;8.38;;;;;;;17.75;65.63;100497.66;8527081;33;20218;-74
2021/09/25 19:15:17;;;;;;;12.40;8.52;;;;;;;17.75;65.33;100492.22;8516139;33;20510;-75
2021/09/25 19:20:20;;;;;;;12.52;8.60;;;;;;;17.75;64.82;100503.06;8512808;33;21088;-75
2021/09/25 19:25:25;;;;;;;11.95;8.25;;;;;;;17.77;64.15;100502.88;8504232;33;20203;-75
2021/09/25 19:30:28;;;;;;;10.88;8.02;;;;;;;17.77;63.64;100502.88;8508351;33;20608;-74
2021/09/25 19:35:32;;;;;;;12.18;7.82;;;;;;;17.74;63.88;100495.91;8509911;33;20442;-74
2021/09/25 19:40:38;;;;;;;11.77;7.90;;;;;;;17.70;64.00;100489.16;8511225;33;20175;-74
2021/09/25 19:45:41;;;;;;;13.18;8.15;;;;;;;17.68;63.80;100489.28;8504158;33;20653;-74
2021/09/25 19:50:44;;;;;;;11.90;7.57;;;;;;;17.63;63.79;100494.38;8508120;33;20416;-74
2021/09/25 19:55:51;;;;;;;13.10;7.40;;;;;;;17.57;64.10;100499.66;8511224;33;20425;-74
2021/09/25 20:00:54;;;;;;;9.98;6.80;;;;;;;17.66;63.50;100504.06;8538891;33;21165;-74
2021/09/25 20:05:58;;;;;;;10.50;7.30;;;;;;;17.69;63.95;100503.75;8544764;33;20383;-74
2021/09/25 20:11:05;;;;;;;10.70;7.90;;;;;;;17.58;64.59;100502.22;8549501;33;20199;-74
2021/09/25 20:16:10;;;;;;;10.32;7.07;;;;;;;17.61;64.75;100498.31;8542734;33;20423;-74
2021/09/25 20:21:18;;;;;;;13.45;8.02;;;;;;;17.65;64.94;100496.94;8517071;33;20192;-74
2021/09/25 20:26:23;;;;;;;11.57;7.45;;;;;;;17.57;64.80;100497.78;8514443;33;20191;-74
2021/09/25 20:31:28;;;;;;;12.27;8.48;;;;;;;17.49;65.01;100497.75;8503082;33;20237;-74
2021/09/25 20:36:32;;;;;;;14.00;9.23;;;;;;;17.50;65.24;100495.88;8505651;33;20512;-74
2021/09/25 20:41:36;;;;;;;12.15;8.30;;;;;;;17.57;65.46;100488.78;8503120;33;20320;-74
2021/09/25 20:46:39;;;;;;;14.32;9.25;;;;;;;17.56;65.38;100477.06;8504989;33;20482;-74
2021/09/25 20:51:46;;;;;;;12.98;8.80;;;;;;;17.58;64.93;100485.03;8503869;33;20453;-74
2021/09/25 20:56:53;;;;;;;14.10;8.38;;;;;;;17.48;65.63;100474.34;8475810;33;20576;-74
2021/09/25 21:01:56;;;;;;;12.82;8.07;;;;;;;17.41;66.20;100479.56;8501977;33;21144;-74
2021/09/25 21:07:00;;;;;;;15.38;8.48;;;;;;;17.34;66.61;100469.56;8508688;33;21970;-74
2021/09/25 21:12:06;;;;;;;12.18;8.30;;;;;;;17.36;66.23;100471.13;8504827;33;20575;-74
2021/09/25 21:17:09;;;;;;;12.68;8.10;;;;;;;17.35;67.26;100468.53;8529738;33;20152;-74
2021/09/25 21:22:12;;;;;;;12.43;8.55;;;;;;;17.31;67.21;100461.78;8535480;33;20446;-75
2021/09/25 21:27:17;;;;;;;13.90;8.32;;;;;;;17.28;67.56;100465.66;8538900;33;20132;-74
2021/09/25 21:32:20;;;;;;;13.10;7.90;;;;;;;17.24;67.52;100456.97;8540302;33;20184;-75
2021/09/25 21:37:23;;;;;;;12.27;8.30;;;;;;;17.15;67.87;100462.56;8540588;33;20547;-74
2021/09/25 21:42:28;;;;;;;12.75;7.75;;;;;;;16.94;68.28;100450.25;8544148;33;20528;-74
2021/09/25 21:47:31;;;;;;;11.48;7.72;;;;;;;16.80;69.01;100449.00;8567455;33;20135;-74
2021/09/25 21:52:34;;;;;;;14.05;7.90;;;;;;;16.70;69.15;100450.16;8550290;33;20458;-76
2021/09/25 21:57:38;;;;;;;13.15;7.88;;;;;;;16.66;69.35;100465.06;8539444;33;20235;-74
2021/09/25 22:02:41;;;;;;;12.52;8.60;;;;;;;16.60;69.50;100447.59;8539637;33;20417;-74
2021/09/25 22:07:46;;;;;;;12.35;7.95;;;;;;;16.58;69.62;100450.44;8539995;33;20282;-74
2021/09/25 22:12:52;;;;;;;13.73;7.95;;;;;;;16.54;69.58;100454.50;8538061;33;20197;-74
2021/09/25 22:17:55;;;;;;;14.80;8.52;;;;;;;16.48;69.83;100455.16;8541013;33;21249;-74
2021/09/25 22:22:58;;;;;;;15.95;9.25;;;;;;;16.38;70.19;100459.84;8549953;33;20448;-74
2021/09/25 22:28:03;;;;;;;12.93;8.27;;;;;;;16.27;70.36;100458.25;8550090;33;20925;-74
2021/09/25 22:33:14;;;;;;;12.82;7.90;;;;;;;16.11;70.79;100464.34;8546672;33;20511;-74
2021/09/25 22:38:18;;;;;;;12.98;8.35;;;;;;;16.03;71.42;100460.75;8547495;33;20433;-74
2021/09/25 22:43:24;;;;;;;13.63;8.35;;;;;;;16.01;71.63;100457.34;8553601;33;20633;-74
2021/09/25 22:48:28;;;;;;;13.90;8.80;;;;;;;15.92;71.46;100459.97;8561038;33;20170;-74
2021/09/25 22:53:32;;;;;;;13.30;8.00;;;;;;;15.87;71.54;100458.75;8559102;33;20497;-75
2021/09/25 22:58:38;;;;;;;13.57;8.52;;;;;;;15.83;71.50;100458.22;8558639;33;20444;-74
2021/09/25 23:03:41;;;;;;;12.05;7.93;;;;;;;15.76;71.81;100454.44;8548680;33;20172;-74
2021/09/25 23:08:45;;;;;;;13.35;8.15;;;;;;;15.70;71.96;100458.63;8548103;33;20174;-74
2021/09/25 23:13:49;;;;;;;11.75;8.05;;;;;;;15.66;71.60;100459.94;8550123;33;20189;-74
2021/09/25 23:18:52;;;;;;;14.20;8.57;;;;;;;15.53;72.13;100454.06;8551140;33;20468;-74
2021/09/25 23:23:55;;;;;;;11.90;7.90;;;;;;;15.50;72.39;100446.25;8558809;33;20418;-75
2021/09/25 23:29:00;;;;;;;15.13;8.35;;;;;;;15.45;72.26;100446.72;8563289;33;20408;-74
2021/09/25 23:34:03;;;;;;;15.95;9.00;;;;;;;15.33;72.22;100447.94;8562914;33;20441;-74
2021/09/25 23:39:06;;;;;;;12.30;7.93;;;;;;;15.29;72.74;100446.53;8568774;33;20622;-74